Time;durP1;ratioP1;P1;durP2;ratioP2;P2;SDS_P1;SDS_P2;PMS_P1;PMS_P2;Temp;Humidity;BMP_temperature;BMP_pressure;BME280_temperature;BME280_humidity;BME280_pressure;Samples;Min_cycle;Max_cycle;Signal;HPM_P1;HPM_P2
2022/08/12 00:44:23;;;;;;;4.85;2.10;;;;;;;16.68;78.39;100115.59;6321824;28;20102;-72
2022/08/12 00:47:24;;;;;;;6.05;2.05;;;;;;;16.65;78.85;100106.16;6321584;28;20397;-73
2022/08/12 00:50:28;;;;;;;2.83;2.20;;;;;;;16.67;79.58;100111.28;6304031;28;20097;-72
2022/08/12 00:53:29;;;;;;;2.92;2.35;;;;;;;16.58;79.58;100110.28;6321488;28;20272;-73
2022/08/12 00:56:30;;;;;;;3.95;1.83;;;;;;;16.63;80.52;100112.50;6321676;28;20047;-72
2022/08/12 00:59:33;;;;;;;2.90;2.00;;;;;;;16.60;79.87;100113.63;6320035;28;20495;-72
2022/08/12 01:02:39;;;;;;;2.33;2.08;;;;;;;16.49;81.11;100101.38;6320146;28;20778;-72
2022/08/12 01:12:26;;;;;;;7.38;2.20;;;;;;;16.56;80.10;100106.13;6321153;28;20120;-72
2022/08/12 01:15:27;;;;;;;2.53;1.85;;;;;;;16.51;81.02;100095.94;6321515;28;20115;-72
2022/08/12 01:18:33;;;;;;;2.25;1.90;;;;;;;16.48;80.91;100093.59;6320949;28;20032;-72
2022/08/12 01:22:11;;;;;;;2.55;1.92;;;;;;;16.31;83.31;100097.66;6321053;28;20506;-73
2022/08/12 01:25:17;;;;;;;2.30;2.10;;;;;;;16.31;82.79;100090.59;6321023;28;20040;-72
2022/08/12 01:28:19;;;;;;;3.53;1.90;;;;;;;16.27;83.99;100091.81;6320934;28;20048;-72
2022/08/12 01:31:20;;;;;;;;;;;;;;;16.34;83.36;100089.50;6321255;28;20047;-72
2022/08/12 01:34:27;;;;;;;2.17;1.97;;;;;;;16.26;83.84;100087.50;6320958;28;20345;-72
2022/08/12 01:37:32;;;;;;;3.28;2.10;;;;;;;16.18;84.35;100079.41;6320416;28;20486;-72
2022/08/12 01:40:37;;;;;;;2.90;1.80;;;;;;;16.22;84.11;100087.88;6319796;28;20408;-72
2022/08/12 01:43:39;;;;;;;2.53;1.83;;;;;;;16.22;84.08;100074.72;6320796;28;20485;-72
2022/08/12 01:47:08;;;;;;;3.03;2.10;;;;;;;16.21;84.09;100083.59;6320923;28;20453;-72
2022/08/12 01:50:25;;;;;;;3.13;2.20;;;;;;;16.17;84.82;100079.56;6319784;28;20145;-71
2022/08/12 01:53:46;;;;;;;2.15;1.95;;;;;;;16.11;85.32;100087.00;6325986;28;20404;-71
2022/08/12 01:56:57;;;;;;;3.33;1.92;;;;;;;16.05;86.67;100082.25;6325871;28;20064;-71
2022/08/12 02:00:05;;;;;;;3.63;1.88;;;;;;;16.08;85.42;100078.50;6325659;28;20036;-72
2022/08/12 02:03:18;;;;;;;3.85;2.30;;;;;;;16.05;85.69;100081.41;6324579;28;20040;-73
2022/08/12 02:14:18;;;;;;;2.78;1.95;;;;;;;15.88;87.97;100069.66;6324985;28;20086;-70
2022/08/12 02:17:44;;;;;;;4.38;1.92;;;;;;;15.93;87.42;100077.19;6326207;28;20109;-71
2022/08/12 02:21:00;;;;;;;2.95;2.15;;;;;;;15.84;88.68;100074.34;6325995;28;20524;-72
2022/08/12 02:24:03;;;;;;;5.80;2.25;;;;;;;15.85;89.56;100072.53;6324618;28;20464;-72
2022/08/12 02:27:07;;;;;;;2.60;2.30;;;;;;;15.78;89.04;100074.03;6324634;28;20040;-72
2022/08/12 02:30:10;;;;;;;4.05;2.10;;;;;;;15.82;88.52;100076.25;6325704;28;20046;-71
2022/08/12 02:33:14;;;;;;;6.50;2.40;;;;;;;15.80;89.07;100078.19;6324533;28;20105;-70
2022/08/12 02:36:15;;;;;;;4.15;2.17;;;;;;;15.77;89.47;100080.22;6324296;28;20044;-71
2022/08/12 02:39:20;;;;;;;3.40;2.23;;;;;;;15.65;90.85;100074.16;6290837;28;20044;-71
2022/08/12 02:42:22;;;;;;;7.53;2.45;;;;;;;15.71;90.23;100069.22;6325527;28;20036;-71
2022/08/12 02:46:14;;;;;;;4.28;2.28;;;;;;;15.67;90.50;100070.44;6325581;28;20051;-71
2022/08/12 02:49:24;;;;;;;5.60;2.55;;;;;;;15.70;90.41;100078.06;6290305;28;20056;-71
2022/08/12 02:52:26;;;;;;;5.25;2.35;;;;;;;15.67;90.72;100077.50;6324081;28;20392;-70
2022/08/12 02:55:32;;;;;;;4.20;2.55;;;;;;;15.52;92.26;100075.16;6325268;28;20036;-71
2022/08/12 02:58:34;;;;;;;5.93;2.55;;;;;;;15.50;92.73;100073.59;6325032;28;20395;-72
2022/08/12 03:01:40;;;;;;;4.00;2.58;;;;;;;15.52;92.64;100072.53;6323710;28;20420;-73
2022/08/12 03:04:49;;;;;;;2.60;2.40;;;;;;;15.52;92.75;100077.81;6324679;28;20059;-72
2022/08/12 03:07:55;;;;;;;4.03;2.42;;;;;;;15.45;93.45;100073.97;6323719;28;20085;-72
2022/08/12 03:11:19;;;;;;;2.72;2.25;;;;;;;15.47;93.10;100085.22;6323611;28;20089;-72
2022/08/12 03:14:24;;;;;;;4.50;2.50;;;;;;;15.38;94.19;100080.72;6283121;28;20068;-72
2022/08/12 03:17:52;;;;;;;6.32;2.70;;;;;;;15.39;95.11;100081.53;6324607;28;20079;-72
2022/08/12 03:20:53;;;;;;;2.83;2.53;;;;;;;15.39;94.30;100087.63;6313381;28;20056;-72
2022/08/12 03:23:56;;;;;;;5.13;2.43;;;;;;;15.39;94.84;100086.78;6306150;28;20036;-71
2022/08/12 03:27:01;;;;;;;6.32;2.60;;;;;;;15.43;94.05;100089.03;6306838;28;20113;-72
2022/08/12 03:30:03;;;;;;;3.92;2.58;;;;;;;15.49;93.19;100080.66;6324462;28;20110;-71
2022/08/12 03:33:05;;;;;;;5.10;2.65;;;;;;;15.52;92.92;100077.81;6323389;28;20076;-71
2022/08/12 03:36:07;;;;;;;7.55;3.35;;;;;;;15.61;92.52;100080.66;6324337;28;20058;-71
2022/08/12 03:42:34;;;;;;;2.92;2.35;;;;;;;15.67;92.12;100077.50;6324103;28;20079;-71
2022/08/12 04:02:18;;;;;;;3.27;2.57;;;;;;;15.83;90.48;100070.03;6322744;28;20048;-71
2022/08/12 04:05:19;;;;;;;5.97;2.70;;;;;;;15.77;90.91;100069.72;6304657;28;20359;-71
2022/08/12 04:08:24;;;;;;;5.97;2.50;;;;;;;15.75;91.31;100067.22;6321600;28;20492;-71
2022/08/12 04:14:46;;;;;;;6.35;2.33;;;;;;;15.89;90.36;100068.69;6321613;28;20067;-71
2022/08/12 04:17:48;;;;;;;5.60;2.70;;;;;;;15.98;91.47;100061.81;6322371;28;20051;-71
2022/08/12 04:20:48;;;;;;;3.83;2.38;;;;;;;15.99;90.32;100060.88;6322306;28;20508;-71
2022/08/12 04:23:52;;;;;;;4.68;2.50;;;;;;;16.08;89.02;100057.47;6304350;28;20048;-71
2022/08/12 04:26:54;;;;;;;9.77;2.50;;;;;;;16.09;88.64;100065.22;6321225;28;20040;-71
2022/08/12 04:29:56;;;;;;;2.63;2.20;;;;;;;16.23;87.39;100071.16;6304376;28;20044;-71
2022/08/12 04:32:57;;;;;;;5.07;2.60;;;;;;;16.22;87.64;100067.66;6320951;28;20047;-71
2022/08/12 04:35:57;;;;;;;3.38;2.25;;;;;;;16.25;87.53;100072.69;6320858;28;20056;-71
2022/08/12 04:39:00;;;;;;;5.78;2.55;;;;;;;16.23;87.32;100063.25;6320952;28;20044;-71
2022/08/12 04:42:01;;;;;;;3.60;2.38;;;;;;;16.38;86.50;100075.09;6320770;28;20048;-71
2022/08/12 04:45:03;;;;;;;4.75;2.42;;;;;;;16.40;86.77;100083.72;6320719;28;20040;-70
2022/08/12 04:48:05;;;;;;;3.30;2.53;;;;;;;16.40;86.99;100088.16;6321740;28;20514;-71
2022/08/12 04:51:08;;;;;;;7.13;2.60;;;;;;;16.44;86.28;100079.84;6321705;28;20119;-71
2022/08/12 04:54:09;;;;;;;;;;;;;;;16.56;85.10;100092.94;6322210;28;20043;-71
2022/08/12 04:57:12;;;;;;;7.72;2.60;;;;;;;16.62;84.93;100092.44;6320632;28;20441;-71
2022/08/12 05:00:15;;;;;;;14.80;4.28;;;;;;;16.75;83.81;100090.38;6321777;28;20131;-71
2022/08/12 05:03:16;;;;;;;3.08;2.55;;;;;;;16.86;83.74;100092.13;6320677;28;20056;-70
2022/08/12 05:06:16;;;;;;;3.67;2.20;;;;;;;17.04;83.40;100097.59;6304022;28;20044;-71
2022/08/12 05:09:18;;;;;;;5.70;2.20;;;;;;;17.21;80.88;100091.66;6320932;28;20412;-70
2022/08/12 05:12:19;;;;;;;7.50;2.28;;;;;;;17.26;80.99;100084.19;6320232;28;20454;-71
2022/08/12 05:15:20;;;;;;;4.93;2.20;;;;;;;17.36;80.51;100086.84;6320228;28;20049;-70
2022/08/12 05:18:22;;;;;;;3.67;2.00;;;;;;;17.47;80.83;100099.09;6322090;28;20082;-71
2022/08/12 05:21:25;;;;;;;8.00;2.42;;;;;;;17.51;79.56;100097.84;6320729;28;20105;-71
2022/08/12 05:24:26;;;;;;;5.65;2.40;;;;;;;17.64;79.10;100095.75;6303623;28;20090;-71
2022/08/12 05:27:26;;;;;;;7.25;2.35;;;;;;;17.66;77.96;100096.44;6319721;28;20036;-71
2022/08/12 05:30:32;;;;;;;2.60;1.98;;;;;;;17.75;78.28;100089.53;6320327;28;20044;-72
2022/08/12 05:33:39;;;;;;;5.88;2.15;;;;;;;17.87;79.01;100091.09;6320528;28;20036;-71
2022/08/12 05:36:42;;;;;;;3.15;2.10;;;;;;;17.96;77.17;100096.50;6321549;28;20056;-71
2022/08/12 05:39:44;;;;;;;2.55;2.15;;;;;;;17.96;76.46;100091.22;6320076;28;20051;-72
2022/08/12 05:42:45;;;;;;;6.82;2.10;;;;;;;18.04;75.98;100086.91;6320447;28;20072;-73
2022/08/12 05:45:46;;;;;;;3.05;2.15;;;;;;;18.15;74.91;100085.06;6320475;28;20046;-73
2022/08/12 05:48:48;;;;;;;2.42;1.85;;;;;;;18.23;75.06;100099.22;6320820;28;20052;-72
2022/08/12 05:51:56;;;;;;;3.45;1.85;;;;;;;18.41;76.33;100096.69;6317805;28;20048;-72
2022/08/12 05:54:57;;;;;;;2.65;2.00;;;;;;;18.52;73.97;100100.97;6303873;28;20098;-72
2022/08/12 05:57:59;;;;;;;3.13;2.00;;;;;;;18.66;74.70;100111.06;6303050;28;20036;-72
2022/08/12 06:01:00;;;;;;;3.78;2.50;;;;;;;18.81;73.27;100113.28;6319832;28;20052;-73
2022/08/12 06:04:03;;;;;;;4.22;1.95;;;;;;;18.96;72.19;100118.91;6320739;28;20044;-71
2022/08/12 06:07:06;;;;;;;6.05;2.67;;;;;;;19.09;70.60;100122.06;6321433;28;20040;-71
2022/08/12 06:10:10;;;;;;;3.13;2.20;;;;;;;19.24;72.15;100122.41;6283176;28;20044;-72
2022/08/12 06:13:13;;;;;;;2.97;1.92;;;;;;;19.44;72.33;100121.31;6320312;28;20119;-73
2022/08/12 06:16:18;;;;;;;2.28;1.77;;;;;;;19.61;69.44;100121.47;6320033;28;20036;-71
2022/08/12 06:19:19;;;;;;;2.33;1.90;;;;;;;19.79;68.53;100119.69;6321181;28;20051;-72
2022/08/12 06:22:22;;;;;;;4.43;2.40;;;;;;;19.89;68.09;100122.25;6319349;28;20044;-72
2022/08/12 06:25:26;;;;;;;2.85;1.92;;;;;;;19.86;66.34;100118.09;6287460;28;20048;-73
2022/08/12 06:28:29;;;;;;;5.18;2.05;;;;;;;20.06;66.65;100113.47;6278306;28;20564;-72
2022/08/12 06:31:30;;;;;;;3.65;1.85;;;;;;;20.28;67.11;100122.75;6294044;28;20498;-71
2022/08/12 06:34:33;;;;;;;4.60;1.97;;;;;;;20.44;67.01;100121.19;6294138;28;20047;-71
2022/08/12 06:37:46;;;;;;;4.63;2.05;;;;;;;20.72;65.15;100127.19;6278262;28;20079;-71
2022/08/12 06:44:19;;;;;;;3.45;1.90;;;;;;;21.08;62.54;100127.00;6299516;28;20041;-73
2022/08/12 06:47:22;;;;;;;1.92;1.65;;;;;;;21.11;62.65;100127.53;6321584;28;20410;-72
2022/08/12 06:50:26;;;;;;;2.33;1.80;;;;;;;21.18;63.22;100122.41;6265392;28;20098;-71
2022/08/12 06:53:27;;;;;;;7.78;1.80;;;;;;;21.36;60.11;100119.66;6316696;28;20062;-71
2022/08/12 06:56:29;;;;;;;1.90;1.60;;;;;;;21.40;60.34;100125.47;6289966;28;20043;-71
2022/08/12 06:59:30;;;;;;;3.28;1.90;;;;;;;21.70;59.27;100118.72;6324398;28;20249;-73
2022/08/12 07:02:31;;;;;;;2.60;1.90;;;;;;;21.76;58.18;100110.09;6322886;28;20496;-73
2022/08/12 07:05:32;;;;;;;2.60;1.65;;;;;;;21.94;58.24;100118.75;6323116;28;20442;-71
2022/08/12 07:08:34;;;;;;;6.30;1.63;;;;;;;22.10;57.10;100117.09;6322439;28;20479;-73
2022/08/12 07:11:39;;;;;;;1.90;1.70;;;;;;;22.32;58.23;100108.47;6322777;28;20044;-73
2022/08/12 07:14:40;;;;;;;3.92;1.80;;;;;;;22.58;57.31;100101.28;6322938;28;20480;-71
2022/08/12 07:17:42;;;;;;;3.93;2.03;;;;;;;22.82;56.97;100105.69;6322592;28;20040;-71
2022/08/12 07:20:44;;;;;;;6.90;1.75;;;;;;;23.05;55.51;100108.44;6322474;28;20047;-71
2022/08/12 07:23:45;;;;;;;7.20;1.83;;;;;;;23.28;56.47;100117.31;6323741;28;20044;-71
2022/08/12 07:26:46;;;;;;;3.23;1.70;;;;;;;23.40;57.19;100111.59;6305655;28;20075;-72
2022/08/12 07:29:48;;;;;;;7.43;2.00;;;;;;;23.54;55.12;100116.16;6322438;28;20097;-71
2022/08/12 07:32:51;;;;;;;3.17;1.73;;;;;;;23.68;52.92;100112.75;6305652;28;20051;-71
2022/08/12 07:35:54;;;;;;;2.85;1.63;;;;;;;23.85;53.35;100105.47;6323766;28;20116;-71
2022/08/12 07:38:55;;;;;;;3.30;1.85;;;;;;;23.97;51.52;100113.03;6322231;28;20059;-71
2022/08/12 07:41:57;;;;;;;1.97;1.50;;;;;;;24.18;52.56;100109.72;6305098;28;20475;-72
2022/08/12 07:44:58;;;;;;;6.50;1.83;;;;;;;24.30;51.21;100110.94;6321371;28;20036;-72
2022/08/12 07:47:59;;;;;;;8.30;1.70;;;;;;;24.74;54.19;100110.97;6305173;28;20047;-74
2022/08/12 07:51:00;;;;;;;6.28;1.75;;;;;;;24.92;51.30;100107.94;6304952;28;20503;-73
2022/08/12 07:54:02;;;;;;;4.27;1.83;;;;;;;25.01;50.68;100097.97;6305834;28;20046;-73
2022/08/12 07:57:05;;;;;;;3.40;1.70;;;;;;;25.10;50.73;100107.53;6322420;28;20067;-73
2022/08/12 08:00:13;;;;;;;3.03;1.83;;;;;;;25.23;47.63;100098.06;6297095;28;20044;-73
2022/08/12 08:03:13;;;;;;;3.88;1.83;;;;;;;25.21;46.60;100100.91;6304446;28;20059;-73
2022/08/12 08:06:15;;;;;;;4.85;1.90;;;;;;;25.29;46.42;100092.78;6295040;28;20036;-73
2022/08/12 08:09:18;;;;;;;2.55;1.77;;;;;;;25.40;46.93;100091.47;6292332;28;20044;-73
2022/08/12 08:15:39;;;;;;;2.22;1.70;;;;;;;25.76;45.54;100103.94;6284579;28;20515;-72
2022/08/12 08:18:40;;;;;;;5.13;1.50;;;;;;;25.98;47.24;100110.13;6307342;28;20119;-73
2022/08/12 08:21:41;;;;;;;4.28;1.50;;;;;;;26.11;44.25;100104.88;6307320;28;20032;-72
2022/08/12 08:24:44;;;;;;;1.60;1.50;;;;;;;26.12;43.98;100106.53;6291188;28;20039;-71
2022/08/12 08:27:45;;;;;;;2.20;1.40;;;;;;;26.41;43.92;100099.31;6306296;28;20044;-71
2022/08/12 08:30:48;;;;;;;1.95;1.20;;;;;;;26.47;42.38;100103.91;6309475;28;20134;-71
2022/08/12 08:33:52;;;;;;;1.90;1.40;;;;;;;26.54;43.74;100103.94;6298252;28;20033;-71
2022/08/12 08:36:53;;;;;;;1.95;1.35;;;;;;;26.84;44.32;100101.88;6284319;28;20044;-71
2022/08/12 08:42:35;;;;;;;1.83;1.23;;;;;;;27.10;45.78;100097.66;6291887;28;20040;-71
2022/08/12 08:43:18;;;;;;;3.30;1.55;;;;;;;27.19;42.51;100096.44;6285461;28;20058;-71
2022/08/12 08:46:19;;;;;;;8.85;2.00;;;;;;;27.41;41.23;100102.53;6291771;28;20063;-70
2022/08/12 08:49:21;;;;;;;4.43;1.58;;;;;;;27.52;40.18;100109.13;6290748;28;20044;-71
2022/08/12 08:52:26;;;;;;;2.60;1.33;;;;;;;27.67;42.15;100107.06;6309823;28;20044;-71
2022/08/12 08:55:27;;;;;;;1.85;1.40;;;;;;;27.98;40.93;100115.59;6292371;28;20059;-72
2022/08/12 08:58:28;;;;;;;2.45;1.20;;;;;;;28.02;39.33;100106.09;6289994;28;20051;-71
2022/08/12 09:01:29;;;;;;;3.72;1.27;;;;;;;28.05;38.77;100103.03;6289969;28;20048;-71
2022/08/12 09:04:30;;;;;;;5.05;1.60;;;;;;;28.10;39.83;100100.53;6271919;28;20596;-71
2022/08/12 09:07:40;;;;;;;;;;;;;;;28.35;38.99;100108.75;6290192;28;20040;-73
2022/08/12 09:10:43;;;;;;;1.50;1.40;;;;;;;28.40;38.01;100102.78;6307074;28;19920;-73
2022/08/12 09:13:47;;;;;;;1.55;1.25;;;;;;;28.63;37.35;100107.72;6304412;28;20039;-73
2022/08/12 09:16:49;;;;;;;2.72;1.15;;;;;;;28.62;36.19;100095.31;6306054;28;20040;-73
2022/08/12 09:19:51;;;;;;;1.45;1.20;;;;;;;28.66;36.45;100099.22;6307443;28;20040;-73
2022/08/12 09:22:53;;;;;;;1.55;1.38;;;;;;;28.51;37.52;100097.59;6288438;28;20110;-73
2022/08/12 09:26:00;;;;;;;4.20;1.55;;;;;;;28.87;40.23;100093.59;6305812;28;20078;-72
2022/08/12 09:29:01;;;;;;;4.15;1.38;;;;;;;28.93;36.52;100090.06;6298983;28;20048;-73
2022/08/12 09:32:05;;;;;;;3.03;1.38;;;;;;;29.37;36.81;100092.13;6296136;28;20044;-73
2022/08/12 09:35:07;;;;;;;1.65;1.48;;;;;;;29.43;34.55;100081.34;6294735;28;20040;-71
2022/08/12 09:38:08;;;;;;;9.90;1.85;;;;;;;29.70;38.84;100082.00;6261424;28;20056;-74
2022/08/12 09:41:10;;;;;;;2.65;1.23;;;;;;;29.68;34.37;100084.06;6295830;28;20037;-74
2022/08/12 09:47:31;;;;;;;5.65;1.20;;;;;;;29.90;35.71;100076.47;6294812;28;20480;-73
2022/08/12 09:50:34;;;;;;;3.58;1.10;;;;;;;30.09;35.51;100071.94;6261758;28;20101;-71
2022/08/12 09:53:35;;;;;;;1.92;1.10;;;;;;;30.06;32.65;100079.63;6295520;28;20044;-71
2022/08/12 09:56:40;;;;;;;2.20;1.17;;;;;;;30.03;32.32;100064.75;6277916;28;20090;-72
2022/08/12 09:59:40;;;;;;;8.15;1.73;;;;;;;29.83;32.00;100064.13;6295475;28;20068;-72
2022/08/12 10:03:04;;;;;;;2.47;1.00;;;;;;;30.20;30.31;100056.94;6277608;28;20389;-71
2022/08/12 10:06:05;;;;;;;2.30;1.35;;;;;;;30.11;31.35;100056.41;6277545;28;20059;-71
2022/08/12 10:09:08;;;;;;;1.58;1.25;;;;;;;30.23;31.29;100058.34;6295537;28;20052;-71
2022/08/12 10:15:30;;;;;;;11.95;1.48;;;;;;;30.80;34.42;100058.97;6299245;28;20114;-73
2022/08/12 10:18:36;;;;;;;6.75;1.50;;;;;;;30.76;33.27;100051.59;6298862;28;20049;-71
2022/08/12 10:21:40;;;;;;;2.10;1.48;;;;;;;30.92;30.65;100051.81;6298693;28;20045;-71
2022/08/12 10:24:41;;;;;;;4.18;1.10;;;;;;;31.13;31.33;100055.06;6299869;28;20507;-71
2022/08/12 10:31:01;;;;;;;2.38;1.30;;;;;;;30.64;30.29;100046.97;6320441;28;20579;-71
2022/08/12 10:34:04;;;;;;;1.88;1.38;;;;;;;30.57;30.12;100046.22;6322823;28;20047;-73
2022/08/12 10:37:05;;;;;;;1.60;1.20;;;;;;;30.55;29.93;100042.91;6322345;28;20068;-73
2022/08/12 10:40:10;;;;;;;3.47;1.23;;;;;;;30.86;32.19;100038.41;6290467;28;20040;-73
2022/08/12 10:46:31;;;;;;;1.40;1.02;;;;;;;31.58;31.58;100032.22;6309520;28;20067;-72
2022/08/12 10:49:33;;;;;;;8.50;1.30;;;;;;;31.51;31.68;100033.16;6306600;28;20064;-71
2022/08/12 10:52:37;;;;;;;1.95;1.10;;;;;;;31.26;30.46;100027.13;6306721;28;20553;-71
2022/08/12 10:55:38;;;;;;;3.28;1.30;;;;;;;31.68;29.22;100025.19;6324362;28;20036;-72
2022/08/12 10:58:39;;;;;;;11.90;2.70;;;;;;;32.02;31.09;100024.66;6306508;28;20040;-73
2022/08/12 11:01:41;;;;;;;;;;;;;;;31.96;29.32;100028.25;6290101;28;20434;-73
2022/08/12 11:04:42;;;;;;;1.33;1.00;;;;;;;31.72;30.44;100017.47;6297692;28;20011;-71
2022/08/12 11:07:43;;;;;;;1.45;0.95;;;;;;;31.55;27.51;100029.97;6297981;28;20405;-73
2022/08/12 11:10:46;;;;;;;1.98;1.10;;;;;;;31.58;29.66;100024.97;6281139;28;20089;-74
2022/08/12 11:13:47;;;;;;;1.45;0.95;;;;;;;31.51;27.69;100029.66;6297742;28;20036;-73
2022/08/12 11:16:48;;;;;;;3.58;1.20;;;;;;;31.45;32.68;100011.72;6299000;28;20041;-73
2022/08/12 11:19:49;;;;;;;;;;;;;;;31.26;30.51;100005.56;6298073;28;20063;-72
2022/08/12 11:22:55;;;;;;;3.20;1.15;;;;;;;31.16;28.67;100003.41;6297078;28;19927;-73
2022/08/12 11:25:59;;;;;;;1.33;1.13;;;;;;;31.38;28.37;100005.56;6298716;28;20542;-73
2022/08/12 11:29:00;;;;;;;4.45;1.20;;;;;;;30.75;29.31;100002.28;6298604;28;20047;-73
2022/08/12 11:32:04;;;;;;;1.33;1.05;;;;;;;29.82;30.50;100006.00;6304893;28;20047;-73
2022/08/12 11:35:07;;;;;;;1.38;1.10;;;;;;;30.31;30.88;100005.13;6322234;28;20048;-71
2022/08/12 11:38:10;;;;;;;1.45;1.10;;;;;;;31.06;27.92;99998.56;6288907;28;20056;-73
2022/08/12 11:41:11;;;;;;;3.65;1.00;;;;;;;31.28;28.88;99998.06;6322147;28;20052;-71
2022/08/12 11:44:15;;;;;;;1.55;1.25;;;;;;;31.07;27.10;99984.06;6272051;28;20048;-71
2022/08/12 11:47:17;;;;;;;1.58;0.98;;;;;;;31.48;27.26;99990.50;6323277;28;20496;-71
2022/08/12 11:50:19;;;;;;;7.03;1.10;;;;;;;31.90;28.45;99986.88;6288972;28;20476;-73
2022/08/12 11:53:19;;;;;;;1.40;0.90;;;;;;;32.19;31.20;99973.50;6288470;28;20070;-72
2022/08/12 11:56:21;;;;;;;2.75;1.00;;;;;;;32.32;25.55;99975.91;6321592;28;20141;-72
2022/08/12 11:59:22;;;;;;;8.10;1.10;;;;;;;31.48;29.26;99978.88;6305116;28;20044;-72
2022/08/12 12:02:24;;;;;;;1.83;1.17;;;;;;;31.22;27.80;99975.53;6304699;28;20138;-72
2022/08/12 12:05:24;;;;;;;;;;;;;;;31.87;29.35;99977.34;6306947;28;20415;-72
2022/08/12 12:08:26;;;;;;;1.77;1.00;;;;;;;32.25;29.44;99961.75;6276600;28;20372;-74
2022/08/12 12:11:26;;;;;;;4.47;1.30;;;;;;;32.27;26.88;99965.84;6314791;28;20040;-71
2022/08/12 12:14:27;;;;;;;;;;;;;;;32.55;26.51;99955.31;6322074;28;20043;-73
2022/08/12 12:17:28;;;;;;;0.83;0.83;;;;;;;32.43;24.39;99956.16;6304481;28;19951;-71
2022/08/12 12:20:29;;;;;;;3.75;1.02;;;;;;;32.37;25.98;99948.19;6287801;28;20522;-72
2022/08/12 12:23:30;;;;;;;;;;;;;;;32.28;27.53;99939.66;6322752;28;20048;-71
2022/08/12 12:26:31;;;;;;;2.53;0.90;;;;;;;32.34;27.77;99957.59;6322422;28;19923;-73
2022/08/12 12:29:32;;;;;;;;;;;;;;;32.48;27.29;99950.03;6304490;28;20055;-73
2022/08/12 12:32:33;;;;;;;0.83;0.80;;;;;;;32.41;24.44;99950.19;6322147;28;19919;-73
2022/08/12 12:35:33;;;;;;;;;;;;;;;31.42;23.76;99947.44;6320328;28;20068;-71
2022/08/12 12:38:34;;;;;;;3.40;0.93;;;;;;;31.84;25.20;99940.06;6303702;28;20299;-71
2022/08/12 12:41:35;;;;;;;;;;;;;;;32.07;24.62;99950.03;6287649;28;20072;-71
2022/08/12 12:44:37;;;;;;;1.77;1.00;;;;;;;32.13;27.12;99937.47;6303856;28;19926;-71
2022/08/12 12:48:01;;;;;;;3.85;1.13;;;;;;;32.06;24.75;99940.31;6303042;28;20090;-71
2022/08/12 12:51:17;;;;;;;1.70;1.10;;;;;;;32.22;26.89;99938.72;6321065;28;20040;-71
2022/08/12 12:54:18;;;;;;;1.92;1.10;;;;;;;32.17;27.32;99935.94;6285610;28;20450;-71
2022/08/12 12:57:18;;;;;;;;;;;;;;;32.28;25.47;99924.28;6268911;28;20052;-71
2022/08/12 13:00:20;;;;;;;2.35;0.90;;;;;;;32.24;25.89;99935.78;6321022;28;19920;-71
2022/08/12 13:03:22;;;;;;;;;;;;;;;31.87;24.05;99934.19;6320077;28;20055;-72
2022/08/12 13:06:28;;;;;;;2.28;0.90;;;;;;;31.98;24.98;99934.41;6319227;28;19966;-71
2022/08/12 13:09:29;;;;;;;3.28;0.90;;;;;;;32.04;24.92;99922.69;6302315;28;20130;-71
2022/08/12 13:12:32;;;;;;;1.65;1.00;;;;;;;31.56;24.11;99934.56;6319467;28;20051;-71
2022/08/12 13:15:33;;;;;;;2.17;1.00;;;;;;;31.56;26.40;99927.31;6282135;28;20036;-72
2022/08/12 13:18:37;;;;;;;1.52;1.20;;;;;;;31.48;27.08;99916.88;6303263;28;20480;-71
2022/08/12 13:22:15;;;;;;;2.20;0.80;;;;;;;31.44;24.65;99913.84;6318309;28;20097;-72
2022/08/12 13:25:00;;;;;;;3.00;1.00;;;;;;;31.38;23.70;99920.13;6319803;28;20051;-71
2022/08/12 13:28:03;;;;;;;1.25;0.90;;;;;;;31.02;25.08;99915.75;6302052;28;20465;-71
2022/08/12 13:31:05;;;;;;;8.48;1.23;;;;;;;30.53;24.97;99913.94;6302745;28;20084;-72
2022/08/12 13:34:06;;;;;;;0.75;0.75;;;;;;;30.63;25.08;99901.81;6284994;28;20066;-71
2022/08/12 13:37:07;;;;;;;1.48;0.77;;;;;;;30.75;25.18;99907.22;6320447;28;20047;-72
2022/08/12 13:40:09;;;;;;;1.00;0.85;;;;;;;30.64;26.12;99906.13;6285856;28;20048;-72
2022/08/12 13:43:16;;;;;;;1.58;0.90;;;;;;;30.84;24.94;99898.56;6319639;28;20465;-73
2022/08/12 13:46:18;;;;;;;2.92;1.00;;;;;;;30.82;25.62;99895.28;6304106;28;20105;-73
2022/08/12 13:49:21;;;;;;;3.22;0.90;;;;;;;30.87;24.85;99894.63;6308293;28;20075;-73
2022/08/12 13:52:23;;;;;;;1.05;0.95;;;;;;;30.85;26.38;99902.91;6324602;28;20048;-74
2022/08/12 13:55:25;;;;;;;2.53;0.90;;;;;;;30.95;25.99;99897.00;6324727;28;20044;-73
2022/08/12 13:58:26;;;;;;;2.58;0.90;;;;;;;30.84;25.27;99895.88;6324806;28;20040;-73
2022/08/12 14:01:27;;;;;;;2.08;0.82;;;;;;;30.95;25.20;99897.00;6291261;28;20047;-73
2022/08/12 14:04:30;;;;;;;;;;;;;;;30.99;28.76;99890.09;6326213;28;20047;-73
2022/08/12 14:07:32;;;;;;;1.00;0.90;;;;;;;30.86;24.10;99895.66;6324929;28;20555;-71
2022/08/12 14:10:39;;;;;;;1.40;0.88;;;;;;;30.97;25.33;99880.59;6271099;28;20442;-71
2022/08/12 14:13:41;;;;;;;4.75;1.20;;;;;;;30.88;25.86;99882.81;6325459;28;20097;-72
2022/08/12 14:16:45;;;;;;;3.95;1.05;;;;;;;30.64;25.12;99898.03;6324077;28;20052;-71
2022/08/12 14:23:08;;;;;;;5.97;1.10;;;;;;;30.09;27.42;99875.56;6323892;28;20052;-74
2022/08/12 14:26:16;;;;;;;1.83;1.13;;;;;;;30.17;26.79;99876.31;6306955;28;20142;-73
2022/08/12 14:29:17;;;;;;;4.78;1.25;;;;;;;30.15;26.24;99873.84;6324622;28;20443;-74
2022/08/12 14:32:18;;;;;;;1.90;0.90;;;;;;;30.23;26.50;99870.84;6307766;28;20080;-74
2022/08/12 14:35:20;;;;;;;3.10;1.02;;;;;;;30.44;25.84;99868.72;6323644;28;20052;-71
2022/08/12 14:38:28;;;;;;;2.45;1.00;;;;;;;30.36;25.16;99869.88;6289984;28;20139;-74
2022/08/12 14:41:32;;;;;;;0.88;0.88;;;;;;;30.40;25.31;99867.56;6318930;28;20051;-72
2022/08/12 14:44:33;;;;;;;2.38;1.23;;;;;;;30.33;27.93;99867.63;6322530;28;20063;-72
2022/08/12 14:47:34;;;;;;;5.07;1.00;;;;;;;30.27;26.69;99863.97;6306043;28;20488;-72
2022/08/12 14:50:36;;;;;;;1.60;0.90;;;;;;;30.19;25.30;99860.78;6306660;28;20063;-73
2022/08/12 14:53:40;;;;;;;1.60;1.02;;;;;;;30.01;25.12;99859.72;6324276;28;20420;-73
2022/08/12 14:56:41;;;;;;;1.20;0.90;;;;;;;30.23;27.38;99859.25;6322901;28;20569;-74
2022/08/12 15:03:05;;;;;;;1.25;0.90;;;;;;;30.27;24.74;99850.50;6323369;28;20044;-72
2022/08/12 15:06:08;;;;;;;2.58;0.95;;;;;;;30.00;25.52;99841.97;6322207;28;20036;-74
2022/08/12 15:09:09;;;;;;;1.77;1.30;;;;;;;29.92;26.54;99855.72;6320369;28;20377;-73
2022/08/12 15:12:12;;;;;;;2.90;1.25;;;;;;;29.47;25.13;99845.22;6324356;28;20124;-73
2022/08/12 15:15:13;;;;;;;2.08;1.00;;;;;;;29.31;26.41;99846.63;6285260;28;20071;-73
2022/08/12 15:18:17;;;;;;;3.55;0.90;;;;;;;28.84;26.50;99840.78;6323001;28;20102;-74
2022/08/12 15:21:18;;;;;;;3.38;1.10;;;;;;;29.08;25.44;99845.34;6306076;28;20056;-73
2022/08/12 15:24:21;;;;;;;8.45;1.40;;;;;;;29.16;26.43;99848.81;6306731;28;20056;-73
2022/08/12 15:27:22;;;;;;;1.90;1.00;;;;;;;29.19;26.23;99853.75;6281618;28;20448;-73
2022/08/12 15:30:26;;;;;;;2.33;1.35;;;;;;;29.05;28.09;99848.47;6267220;28;20044;-73
2022/08/12 15:33:27;;;;;;;2.30;1.30;;;;;;;29.19;27.16;99851.88;6297961;28;20059;-74
2022/08/12 15:36:29;;;;;;;3.10;1.30;;;;;;;29.24;26.58;99843.16;6298854;28;20052;-74
2022/08/12 15:39:29;;;;;;;3.50;1.08;;;;;;;29.25;26.34;99845.63;6298895;28;20056;-74
2022/08/12 15:42:33;;;;;;;7.30;1.15;;;;;;;29.52;25.64;99834.63;6280887;28;20048;-74
2022/08/12 15:45:36;;;;;;;1.95;1.13;;;;;;;29.45;25.73;99831.19;6298811;28;20048;-74
2022/08/12 15:48:43;;;;;;;4.63;1.10;;;;;;;29.21;24.75;99822.94;6298784;28;20430;-74
2022/08/12 15:51:43;;;;;;;0.80;0.80;;;;;;;29.38;24.88;99815.13;6291809;28;20086;-74
2022/08/12 15:54:44;;;;;;;3.63;0.90;;;;;;;29.51;24.42;99819.56;6309103;28;20071;-72
2022/08/12 15:57:53;;;;;;;2.13;1.70;;;;;;;29.35;24.53;99823.63;6275291;28;20049;-72
2022/08/12 16:00:54;;;;;;;2.35;1.05;;;;;;;29.37;25.70;99820.75;6305773;28;20036;-72
2022/08/12 16:03:56;;;;;;;;;;;;;;;29.09;24.75;99819.31;6286968;28;20040;-70
2022/08/12 16:06:59;;;;;;;2.00;1.00;;;;;;;29.23;24.88;99820.03;6303398;28;19927;-71
2022/08/12 16:10:00;;;;;;;2.55;1.10;;;;;;;29.45;24.17;99817.75;6296944;28;20063;-71